LiveATC.Net - Listen to live air traffic control over the Internet!


ICAO: KMCC  IATA: MCC   Airport: McClellan Airfield
City: Sacramento   State/Province: California
Country: United States   Continent: North America
KMCC METAR Weather: KMCC 171625Z AUTO 00000KT 10SM CLR 16/11 A2994 RMK AO2
KMCC Flight Activity (FlightAware)
KMCC Airport Info   (iFlightPlanner)
KMCC VFR Sectional Chart   (iFlightPlanner) 
KMCC IFR Low Chart   (iFlightPlanner) 

KMCC CTAF/Del/Gnd/Twr
Feed Status: UP   Listeners: 0
Listen in your browser - HTML5 player (in browser, HTML5)
Click here to listen with your own player (launches your MP3 player)
KMCC CTAF/Del/Gnd/Twr Audio Archives
FacilityFrequency
McClellan Clearance Delivery119.825
McClellan CTAF122.975
McClellan Ground (temp)118.650
McClellan Tower (temp)119.300

NOTICE

Unauthorized use prohibited. See LiveATC.net Terms of Service


Airport/ARTCC Code
Frequency Search
(e.g., 124.400, 128.75)
Site-wide search
 


Browse LiveATC Feeds
Top 50 LiveATC Feeds
LiveATC Feed Map
Bad Weather Areas

LiveATC FAQ
Offer LiveATC feed
Contact LiveATC.net
Press Inquiries

LiveATC on iPhone
LiveATC on Android

Windows Phone
Windows 8/10

LiveATC Mobile
(Mobile browser)

ATC Audio Archives
Interesting Recordings

LiveATC Forums


Home Page
About LiveATC.net
Make a Donation
Terms of Use
Privacy Policy

Canadian Air Freqs

AIRMETs/SIGMETs

FAA Airport Status
Nat'l Airspace Status
Arrival Demand Charts


Server Software By:
Icecast.org
Liquidsoap